Time;durP1;ratioP1;P1;durP2;ratioP2;P2;SDS_P1;SDS_P2;PMS_P1;PMS_P2;Temp;Humidity;BMP_temperature;BMP_pressure;BME280_temperature;BME280_humidity;BME280_pressure;Samples;Min_cycle;Max_cycle;Signal;HPM_P1;HPM_P2
2022/05/21 00:06:23;;;;;;;8.90;5.07;;;13.00;99.90;;;13.90;97.93;164193.63;4934782;29;20142;-88
2022/05/21 00:10:19;;;;;;;;;;;;;;;;;;;;;
2022/05/21 00:20:50;;;;;;;11.82;5.75;;;13.00;99.90;;;13.89;98.81;164191.00;4932025;29;20044;-87
2022/05/21 00:24:30;;;;;;;;;;;;;;;;;;;;;
2022/05/21 00:28:17;;;;;;;11.43;6.43;;;12.90;99.90;;;13.91;98.92;164194.97;4919954;29;20479;-90
2022/05/21 00:31:22;;;;;;;;;;;;;;;;;;;;;
2022/05/21 00:34:55;;;;;;;;;;;;;;;;;;;;;
2022/05/21 00:38:06;;;;;;;;;;;;;;;;;;;;;
2022/05/21 00:40:44;;;;;;;13.50;6.93;;;12.90;99.90;;;13.96;99.19;164209.75;4939156;29;20039;-89
2022/05/21 00:43:57;;;;;;;14.10;9.18;;;13.00;99.90;;;13.90;100.00;164193.63;4938008;29;20430;-89
2022/05/21 00:46:55;;;;;;;;;;;;;;;;;;;;;
2022/05/21 00:50:46;;;;;;;;;;;;;;;;;;;;;
2022/05/21 00:54:24;;;;;;;12.82;8.10;;;12.90;99.90;;;13.69;100.00;164138.78;4939544;29;20123;-88
2022/05/21 00:57:46;;;;;;;16.25;11.30;;;12.70;99.90;;;13.58;100.00;164108.03;4926245;29;20039;-86
2022/05/21 01:00:42;;;;;;;16.48;9.63;;;12.60;99.90;;;13.55;100.00;164101.28;4939906;29;20036;-88
2022/05/21 01:07:10;;;;;;;14.75;10.32;;;12.40;99.90;;;13.27;100.00;164026.38;4940220;29;20280;-90
2022/05/21 01:10:49;;;;;;;18.52;11.25;;;12.30;99.90;;;13.20;100.00;164007.63;4953835;29;20099;-89
2022/05/21 01:14:51;;;;;;;;;;;;;;;;;;;;;
2022/05/21 01:17:48;;;;;;;;;;;;;;;;;;;;;
2022/05/21 01:21:49;;;;;;;;;;;;;;;;;;;;;
2022/05/21 01:25:31;;;;;;;;;;;;;;;;;;;;;
2022/05/21 01:28:43;;;;;;;;;;;;;;;;;;;;;
2022/05/21 01:32:41;;;;;;;19.02;11.68;;;11.80;99.90;;;12.72;100.00;163879.16;4958082;29;20158;-86
2022/05/21 01:36:32;;;;;;;17.85;12.25;;;11.80;99.90;;;12.64;100.00;163860.50;4941227;29;20050;-87
2022/05/21 01:39:44;;;;;;;;;;;;;;;;;;;;;
2022/05/21 01:42:10;;;;;;;15.70;11.52;;;11.70;99.90;;;12.64;100.00;163860.50;4956309;29;20073;-86
2022/05/21 01:45:53;;;;;;;17.75;11.48;;;11.70;99.90;;;12.63;100.00;163857.78;4969919;28;20520;-85
2022/05/21 01:49:07;;;;;;;13.68;10.15;;;11.60;99.90;;;12.62;100.00;163855.09;4958353;28;20035;-88
2022/05/21 02:04:36;;;;;;;;;;;;;;;;;;;;;
2022/05/21 02:12:24;;;;;;;;;;;;;;;;;;;;;
2022/05/21 02:18:36;;;;;;;14.23;8.77;;;11.70;99.90;;;12.69;100.00;163873.84;4968714;28;20046;-88
2022/05/21 02:21:18;;;;;;;;;;;;;;;;;;;;;
2022/05/21 02:24:18;;;;;;;;;;;;;;;;;;;;;
2022/05/21 02:27:12;;;;;;;11.38;7.70;;;11.80;99.90;;;12.83;100.00;163908.63;4975371;29;20157;-89
2022/05/21 02:30:28;;;;;;;13.65;7.10;;;11.80;99.90;;;12.85;100.00;163913.94;4990988;28;20023;-87
2022/05/21 02:33:03;;;;;;;12.23;7.40;;;11.90;99.90;;;12.77;100.00;163893.91;4971592;29;20033;-87
2022/05/21 02:41:22;;;;;;;12.05;6.45;;;11.90;99.90;;;12.95;100.00;163942.06;4966927;29;20082;-91
2022/05/21 02:47:48;;;;;;;11.30;6.78;;;12.00;99.90;;;13.08;100.00;163976.88;4970994;28;20035;-88
2022/05/21 02:53:57;;;;;;;9.50;5.70;;;12.20;99.90;;;13.22;100.00;164011.69;4964843;28;20091;-90
2022/05/21 03:00:41;;;;;;;;;;;;;;;;;;;;;
2022/05/21 03:03:16;;;;;;;9.65;5.60;;;12.30;99.90;;;13.29;100.00;164031.75;4965918;29;20091;-91
2022/05/21 03:05:53;;;;;;;10.68;5.05;;;12.30;99.90;;;13.35;100.00;164047.81;4968556;29;20086;-88
2022/05/21 03:13:11;;;;;;;12.88;6.55;;;12.40;99.90;;;13.30;100.00;164033.06;4972832;28;20051;-90
2022/05/21 03:16:56;;;;;;;;;;;;;;;;;;;;;
2022/05/21 03:19:38;;;;;;;8.63;5.97;;;12.40;99.90;;;13.38;100.00;164055.84;4968075;28;20110;-90
2022/05/21 03:23:04;;;;;;;9.77;7.13;;;12.50;99.90;;;13.39;100.00;164058.47;4966112;28;20034;-89
2022/05/21 03:25:49;;;;;;;15.23;8.25;;;12.50;99.90;;;13.48;100.00;164082.59;4950814;29;20027;-88
2022/05/21 03:28:43;;;;;;;12.55;7.70;;;12.50;99.90;;;13.44;100.00;164070.53;4955717;28;20041;-83
2022/05/21 03:31:35;;;;;;;17.70;8.10;;;12.40;99.90;;;13.27;100.00;164025.03;4962817;28;20104;-83
2022/05/21 03:34:26;;;;;;;;;;;;;;;;;;;;;
2022/05/21 03:46:02;;;;;;;;;;;;;;;;;;;;;
2022/05/21 03:49:23;;;;;;;14.85;10.65;;;12.30;99.90;;;13.42;100.00;164065.22;4963811;28;20126;-89
2022/05/21 03:51:51;;;;;;;16.88;10.63;;;12.40;99.90;;;13.26;100.00;164022.41;4956010;29;20043;-88
2022/05/21 03:54:31;;;;;;;14.23;11.07;;;12.40;99.90;;;13.34;100.00;164043.78;4960502;29;20471;-92
2022/05/21 03:57:22;;;;;;;;;;;;;;;;;;;;;
2022/05/21 04:01:02;;;;;;;;;;;;;;;;;;;;;
2022/05/21 04:04:05;;;;;;;15.23;11.45;;;12.40;99.90;;;13.42;100.00;164065.22;4959632;29;20094;-89
2022/05/21 04:06:49;;;;;;;20.73;11.00;;;12.40;99.90;;;13.37;100.00;164053.16;4958236;29;20035;-89
2022/05/21 04:09:35;;;;;;;19.30;11.95;;;12.40;99.90;;;13.37;100.00;164051.81;4958474;28;20046;-88
2022/05/21 04:16:05;;;;;;;15.57;11.48;;;12.40;99.90;;;13.39;100.00;164057.19;4942375;28;20038;-87
2022/05/21 04:21:42;;;;;;;16.30;10.45;;;12.40;99.90;;;13.49;100.00;164083.91;4946791;28;20067;-89
2022/05/21 04:24:11;;;;;;;16.55;11.35;;;12.40;99.90;;;13.42;100.00;164065.22;4957768;29;20035;-87
2022/05/21 04:26:52;;;;;;;17.88;10.63;;;12.50;99.90;;;13.41;100.00;164062.50;4959454;29;20031;-87
2022/05/21 04:29:29;;;;;;;;;;;;;;;;;;;;;
2022/05/21 04:31:56;;;;;;;16.40;11.25;;;12.40;99.90;;;13.44;100.00;164070.53;4958517;29;20091;-88
2022/05/21 04:34:22;;;;;;;17.83;10.93;;;12.50;99.90;;;13.45;100.00;164074.53;4973494;28;20035;-89
2022/05/21 04:36:50;;;;;;;17.30;10.52;;;12.40;99.90;;;13.55;100.00;164101.28;4974579;28;20450;-87
2022/05/21 04:39:28;;;;;;;20.73;11.40;;;12.40;99.90;;;13.44;100.00;164071.88;4974203;28;20503;-89
2022/05/21 04:42:00;;;;;;;12.80;9.82;;;12.40;99.90;;;13.41;100.00;164063.88;4959264;29;20078;-88
2022/05/21 04:44:31;;;;;;;21.20;10.90;;;12.40;99.90;;;13.36;100.00;164050.44;4957813;29;20094;-88
2022/05/21 04:46:59;;;;;;;14.38;10.48;;;12.50;99.90;;;13.33;100.00;164042.44;4957200;29;20035;-88
2022/05/21 04:49:25;;;;;;;18.25;10.98;;;12.30;99.90;;;13.48;100.00;164082.59;4958527;29;20038;-87
2022/05/21 04:51:53;;;;;;;18.42;11.73;;;12.40;99.90;;;13.44;100.00;164070.53;4958004;28;20042;-88
2022/05/21 04:54:22;;;;;;;16.65;11.13;;;12.40;99.90;;;13.43;100.00;164067.84;4960024;28;20046;-88
2022/05/21 04:56:48;;;;;;;17.65;11.65;;;12.40;99.90;;;13.46;100.00;164077.22;4957947;29;20055;-87
2022/05/21 04:59:14;;;;;;;15.55;11.13;;;12.40;99.90;;;13.43;100.00;164067.84;4957779;29;20031;-85
2022/05/21 05:01:49;;;;;;;22.13;12.35;;;12.40;99.90;;;13.35;100.00;164047.81;4958181;29;20051;-87
2022/05/21 05:04:15;;;;;;;20.48;11.82;;;12.40;99.90;;;13.45;100.00;164073.22;4958600;28;20118;-89
2022/05/21 05:06:42;;;;;;;17.33;11.55;;;12.40;99.90;;;13.41;100.00;164062.50;4958389;29;20027;-89
2022/05/21 05:09:19;;;;;;;18.05;11.60;;;12.40;99.90;;;13.30;100.00;164033.06;4957737;29;20066;-88
2022/05/21 05:11:47;;;;;;;20.63;10.90;;;12.40;99.90;;;13.30;100.00;164034.41;4960117;29;20051;-90
2022/05/21 05:14:22;;;;;;;16.27;10.75;;;12.40;99.90;;;13.37;100.00;164053.16;4968645;28;20023;-83
2022/05/21 05:16:56;;;;;;;16.10;11.70;;;12.30;99.90;;;13.38;100.00;164054.50;4978087;28;20066;-84
2022/05/21 05:19:21;;;;;;;18.38;10.43;;;12.40;99.90;;;13.41;100.00;164063.88;4962704;29;20409;-88
2022/05/21 05:21:58;;;;;;;17.50;10.15;;;12.40;99.90;;;13.40;100.00;164061.16;4958992;28;20106;-87
2022/05/21 05:24:30;;;;;;;18.73;10.70;;;12.40;99.90;;;13.49;100.00;164085.25;4957739;29;20126;-88
2022/05/21 05:26:56;;;;;;;17.55;9.82;;;12.50;99.90;;;13.41;100.00;164062.50;4958657;28;20055;-90
2022/05/21 05:29:28;;;;;;;17.50;10.57;;;12.40;99.90;;;13.41;100.00;164062.50;4958627;28;20038;-91
2022/05/21 05:31:57;;;;;;;20.83;10.70;;;12.50;99.90;;;13.47;100.00;164079.91;4958176;28;20031;-88
2022/05/21 05:34:25;;;;;;;15.70;9.65;;;12.50;99.90;;;13.60;100.00;164113.38;4977593;28;20023;-85
2022/05/21 05:36:52;;;;;;;17.58;9.98;;;12.50;99.90;;;13.62;100.00;164120.03;4961484;29;20031;-87
2022/05/21 05:39:30;;;;;;;17.20;10.20;;;12.70;99.90;;;13.70;100.00;164141.47;4961518;29;20174;-87
2022/05/21 05:42:00;;;;;;;18.35;10.70;;;12.80;99.90;;;13.87;100.00;164184.31;4977265;28;20361;-86
2022/05/21 05:44:29;;;;;;;22.83;12.10;;;12.80;99.90;;;13.88;100.00;164188.28;4960637;28;20027;-87
2022/05/21 05:46:55;;;;;;;18.70;11.05;;;12.90;99.90;;;14.03;100.00;164227.16;4961357;28;20077;-89
2022/05/21 05:49:22;;;;;;;16.55;10.07;;;13.00;99.90;;;14.13;100.00;164255.22;4960745;29;20039;-89
2022/05/21 05:51:49;;;;;;;21.77;10.35;;;12.90;99.90;;;13.93;100.00;164200.38;4975907;28;20086;-86
2022/05/21 05:54:14;;;;;;;20.48;10.23;;;13.00;99.90;;;13.92;100.00;164199.03;4960032;29;20472;-88
2022/05/21 05:56:45;;;;;;;17.08;10.30;;;12.90;99.90;;;13.88;100.00;164188.28;4960210;29;20058;-87
2022/05/21 06:04:54;;;;;;;15.68;9.20;;;12.90;99.90;;;13.96;100.00;164208.41;4934356;28;20038;-90
2022/05/21 06:07:20;;;;;;;15.25;9.07;;;12.90;99.90;;;14.01;100.00;164223.09;4962680;28;20024;-85
2022/05/21 06:11:00;;;;;;;;;;;;;;;;;;;;;
2022/05/21 06:13:30;;;;;;;18.08;8.45;;;13.00;99.90;;;14.25;100.00;164287.34;4961826;29;20099;-89
2022/05/21 06:16:02;;;;;;;15.43;8.73;;;13.10;99.90;;;14.39;100.00;164322.19;4959544;29;20042;-86
2022/05/21 06:19:10;;;;;;;11.38;7.53;;;13.30;99.90;;;14.60;98.37;164378.47;4960171;29;20107;-90
2022/05/21 06:21:42;;;;;;;16.15;7.18;;;13.40;99.90;;;14.75;96.63;164419.97;4958941;29;20066;-88
2022/05/21 06:24:53;;;;;;;;;;;;;;;;;;;;;
2022/05/21 06:30:54;;;;;;;15.57;7.47;;;13.60;99.90;;;14.64;96.24;164389.19;4960219;28;20475;-88
2022/05/21 06:33:26;;;;;;;12.70;7.60;;;13.60;99.90;;;14.75;96.09;164419.97;4961554;28;20090;-86
2022/05/21 06:36:11;;;;;;;12.38;7.75;;;13.60;99.90;;;14.64;96.04;164390.50;4960508;28;20099;-88
2022/05/21 06:38:40;;;;;;;15.15;7.95;;;13.60;99.90;;;14.57;96.42;164370.44;4977292;28;20033;-88
2022/05/21 06:41:12;;;;;;;14.32;7.78;;;13.50;99.90;;;14.45;96.95;164339.59;4960908;29;20031;-87
2022/05/21 06:43:39;;;;;;;12.23;7.90;;;13.50;99.90;;;14.45;97.83;164338.31;4959890;28;20027;-87
2022/05/21 06:46:05;;;;;;;18.15;9.10;;;13.50;99.90;;;14.41;97.64;164328.94;4958914;28;20023;-87
2022/05/21 06:48:32;;;;;;;16.83;9.05;;;13.50;99.90;;;14.61;97.44;164382.47;4981099;28;20031;-85
2022/05/21 06:51:05;;;;;;;17.60;9.02;;;13.50;99.90;;;14.65;96.94;164393.19;4963127;28;20086;-87
2022/05/21 06:53:36;;;;;;;18.60;8.48;;;13.60;99.90;;;14.66;96.61;164394.53;4986108;28;20494;-87
2022/05/21 06:56:10;;;;;;;13.27;7.68;;;13.60;99.90;;;14.73;97.33;164414.63;4959884;28;20043;-88
2022/05/21 06:58:38;;;;;;;13.57;7.82;;;13.60;99.90;;;14.51;97.09;164354.38;4958585;29;20050;-87
2022/05/21 07:01:09;;;;;;;14.82;8.82;;;13.50;99.90;;;14.55;97.48;164365.03;4974598;28;20063;-87
2022/05/21 07:03:44;;;;;;;17.42;7.57;;;13.50;99.90;;;14.58;97.67;164374.41;4958756;28;20403;-87
2022/05/21 07:08:57;;;;;;;20.02;9.02;;;13.50;99.90;;;14.72;96.49;164411.94;4961082;29;20089;-87
2022/05/21 07:11:27;;;;;;;16.33;7.30;;;13.60;99.90;;;14.82;96.08;164437.38;4946055;28;20027;-91
2022/05/21 07:13:54;;;;;;;17.50;8.43;;;13.70;99.90;;;14.73;96.23;164413.28;4941908;28;20040;-92
2022/05/21 07:16:19;;;;;;;12.43;8.18;;;13.70;99.90;;;14.72;95.64;164411.94;4942363;29;20142;-85
2022/05/21 07:18:47;;;;;;;17.10;8.52;;;13.60;99.90;;;14.78;96.00;164428.00;4941808;29;20551;-88
2022/05/21 07:21:33;;;;;;;14.60;7.43;;;13.70;99.90;;;14.89;96.04;164454.78;4973041;28;20087;-83
2022/05/21 07:24:00;;;;;;;17.48;7.68;;;13.70;99.90;;;14.75;95.96;164418.63;4951453;28;20130;-88
2022/05/21 07:26:34;;;;;;;14.90;7.57;;;13.80;99.90;;;15.08;95.60;164507.03;4940759;29;20035;-86
2022/05/21 07:28:59;;;;;;;14.80;7.82;;;13.90;99.90;;;15.12;94.20;164516.41;4940001;29;20135;-89
2022/05/21 07:31:29;;;;;;;14.48;7.30;;;13.90;99.90;;;15.28;95.08;164560.59;4939582;29;20063;-87
2022/05/21 07:33:55;;;;;;;17.15;7.75;;;14.10;99.90;;;15.36;93.48;164579.34;4940680;29;20111;-88
2022/05/21 07:36:25;;;;;;;11.13;7.28;;;14.20;99.90;;;15.34;93.64;164574.00;4957829;29;20441;-87
2022/05/21 07:38:53;;;;;;;14.15;7.10;;;14.10;99.90;;;15.41;93.39;164592.78;4942005;29;20066;-87
2022/05/21 07:41:22;;;;;;;16.38;7.30;;;14.20;99.90;;;15.24;92.33;164549.91;4942678;29;20032;-89
2022/05/21 07:43:48;;;;;;;17.02;7.80;;;14.20;99.90;;;15.36;92.35;164580.69;4942135;29;20436;-90
2022/05/21 07:46:15;;;;;;;15.98;6.78;;;14.20;99.90;;;15.45;92.09;164603.47;4942793;29;20028;-90
2022/05/21 07:48:42;;;;;;;12.60;6.78;;;14.20;99.90;;;15.58;92.42;164639.69;4944285;29;20046;-91
2022/05/21 07:51:11;;;;;;;12.65;7.13;;;14.30;99.90;;;15.71;91.22;164674.53;4960670;29;20098;-88
2022/05/21 07:53:42;;;;;;;12.05;7.22;;;14.60;99.90;;;15.96;90.59;164738.88;4939577;29;20032;-87
2022/05/21 07:56:11;;;;;;;13.45;6.82;;;14.70;99.90;;;15.83;90.08;164706.69;4938965;29;20069;-87
2022/05/21 07:58:40;;;;;;;16.45;7.15;;;14.70;99.90;;;15.89;90.16;164721.47;4938937;29;20031;-86
2022/05/21 08:01:08;;;;;;;12.50;6.85;;;14.80;99.90;;;15.92;89.94;164728.16;4938879;29;20055;-85
2022/05/21 08:03:35;;;;;;;13.77;7.57;;;14.70;99.90;;;15.71;89.36;164673.19;4939102;29;20070;-86
2022/05/21 08:06:02;;;;;;;13.27;8.05;;;14.70;99.90;;;15.80;89.83;164697.31;4938346;29;20031;-88
2022/05/21 08:08:29;;;;;;;13.02;8.20;;;14.60;99.90;;;15.67;89.71;164663.81;4939125;29;20048;-87
2022/05/21 08:10:55;;;;;;;18.40;8.77;;;14.50;99.90;;;15.54;90.02;164628.97;4939259;29;20027;-88
2022/05/21 08:13:21;;;;;;;17.10;7.88;;;14.40;99.90;;;15.64;90.35;164654.41;4938495;29;20107;-84
2022/05/21 08:15:48;;;;;;;16.13;7.35;;;14.50;99.90;;;15.89;90.43;164720.13;4939382;29;20068;-86
2022/05/21 08:18:15;;;;;;;15.82;7.47;;;14.70;99.90;;;15.99;90.41;164748.22;4939811;29;20032;-87
2022/05/21 08:20:42;;;;;;;13.90;7.65;;;14.80;99.90;;;15.95;89.98;164737.53;4938646;29;20060;-87
2022/05/21 08:28:47;;;;;;;16.70;8.23;;;14.60;99.90;;;15.79;90.14;164694.66;4940156;29;20481;-85
2022/05/21 08:31:13;;;;;;;14.57;7.90;;;14.60;99.90;;;15.73;90.70;164679.88;4939684;29;20094;-86
2022/05/21 08:33:40;;;;;;;16.27;7.63;;;14.60;99.90;;;15.56;91.79;164633.00;4939408;29;20448;-86
2022/05/21 08:36:07;;;;;;;21.30;8.95;;;14.60;99.90;;;15.56;89.99;164633.00;4938674;29;20126;-85
2022/05/21 08:38:33;;;;;;;15.30;7.70;;;14.40;99.90;;;15.45;90.42;164603.47;4953721;29;20500;-87
2022/05/21 08:41:12;;;;;;;18.25;9.20;;;14.30;99.90;;;15.41;90.72;164594.06;4938060;29;20046;-86
2022/05/21 08:44:24;;;;;;;16.52;8.25;;;14.30;99.90;;;15.30;91.99;164565.97;4938863;28;20038;-83
2022/05/21 08:47:32;;;;;;;17.05;7.78;;;14.20;99.90;;;15.37;90.60;164582.03;4938338;29;20031;-85
2022/05/21 08:50:14;;;;;;;15.13;7.78;;;14.30;99.90;;;15.48;90.80;164612.88;4938664;29;20403;-85
2022/05/21 08:53:11;;;;;;;14.48;7.53;;;14.40;99.90;;;15.51;91.44;164620.94;4938671;29;20058;-86
2022/05/21 08:55:52;;;;;;;;;;;14.40;99.90;;;15.53;91.02;164626.31;4939072;29;20135;-88
2022/05/21 08:58:40;;;;;;;13.95;7.95;;;14.40;99.90;;;15.44;90.63;164600.81;4938548;29;19930;-87
2022/05/21 09:01:10;;;;;;;13.50;7.53;;;14.50;99.90;;;15.49;90.02;164615.59;4937377;29;20248;-87
2022/05/21 09:03:37;;;;;;;17.20;8.93;;;14.40;99.90;;;15.37;90.49;164583.41;4953287;28;20040;-88
2022/05/21 09:07:04;;;;;;;16.73;8.60;;;14.30;99.90;;;15.35;91.72;164576.72;4937611;29;20396;-87
2022/05/21 09:09:58;;;;;;;16.45;8.70;;;14.30;99.90;;;15.24;93.27;164548.56;4953440;28;20028;-89
2022/05/21 09:13:20;;;;;;;17.02;9.35;;;14.20;99.90;;;15.19;93.88;164536.47;4937667;29;20059;-89
2022/05/21 09:18:37;;;;;;;17.17;9.55;;;14.10;99.90;;;15.08;93.26;164505.69;4939787;29;20039;-86
2022/05/21 09:21:18;;;;;;;24.90;9.55;;;14.10;99.90;;;15.48;92.29;164612.88;4953185;29;20067;-85
2022/05/21 09:23:59;;;;;;;13.35;8.48;;;14.40;99.90;;;15.75;91.10;164683.94;4937868;29;20039;-86
2022/05/21 09:26:51;;;;;;;18.77;8.73;;;14.50;99.90;;;16.31;88.95;164834.00;4947241;28;20036;-82
2022/05/21 09:29:34;;;;;;;16.65;9.07;;;14.90;99.90;;;16.48;89.84;164876.91;4954758;29;20031;-89
2022/05/21 09:32:45;;;;;;;15.07;8.50;;;15.20;99.90;;;16.21;88.69;164807.19;4937846;29;20372;-85
2022/05/21 09:35:47;;;;;;;;;;;;;;;;;;;;;
2022/05/21 09:38:54;;;;;;;16.85;9.20;;;14.90;99.90;;;16.19;89.68;164801.84;4948993;29;20070;-86
2022/05/21 09:41:32;;;;;;;17.30;9.73;;;15.00;99.90;;;16.84;88.74;164973.50;4957424;28;20104;-84
2022/05/21 09:47:23;;;;;;;16.02;8.65;;;16.50;99.90;;;19.44;77.06;165664.78;4941473;29;20058;-86
2022/05/21 09:50:11;;;;;;;16.75;7.43;;;17.80;99.90;;;18.94;74.93;165533.09;4938247;29;20492;-84
2022/05/21 09:52:38;;;;;;;14.23;8.18;;;17.80;99.90;;;19.06;77.32;165562.66;4937143;29;20038;-85
2022/05/21 09:55:30;;;;;;;15.50;7.15;;;18.00;99.90;;;19.27;72.95;165620.41;4936899;29;20035;-86
2022/05/21 09:58:13;;;;;;;18.98;7.00;;;18.10;99.90;;;19.55;72.63;165693.00;4937059;29;20023;-86
2022/05/21 10:00:39;;;;;;;16.67;7.03;;;18.30;99.90;;;19.69;70.20;165731.94;4939953;29;20039;-85
2022/05/21 10:03:10;;;;;;;16.52;7.22;;;18.50;99.90;;;19.97;69.15;165805.84;4939645;29;20099;-86
2022/05/21 10:05:50;;;;;;;12.80;6.55;;;18.70;99.90;;;20.36;68.19;165909.31;4939752;29;20115;-87
2022/05/21 10:11:29;;;;;;;13.90;7.18;;;19.20;99.90;;;21.31;65.43;166163.41;4948310;29;20043;-86
2022/05/21 10:14:19;;;;;;;13.13;7.00;;;19.70;99.90;;;21.28;65.06;166155.34;4947276;29;20103;-88
2022/05/21 10:16:57;;;;;;;13.65;7.10;;;19.70;99.90;;;21.80;61.75;166293.81;4948980;29;20060;-85
2022/05/21 10:20:08;;;;;;;17.35;7.28;;;20.10;99.90;;;21.88;64.77;166315.34;4949011;29;20027;-86
2022/05/21 10:23:14;;;;;;;16.60;6.50;;;20.30;99.90;;;22.53;59.37;166488.94;4963642;29;20031;-84
2022/05/21 10:26:01;;;;;;;13.40;5.88;;;20.90;99.90;;;22.13;59.77;166381.28;4960254;29;20027;-88
2022/05/21 10:29:20;;;;;;;11.25;4.65;;;20.70;99.90;;;21.68;59.86;166261.53;4944315;29;20033;-87
2022/05/21 10:32:08;;;;;;;13.15;5.05;;;20.40;99.90;;;22.04;59.46;166357.09;4941970;29;20098;-86
2022/05/21 10:35:40;;;;;;;12.48;5.30;;;20.50;99.90;;;21.83;58.56;166301.88;4944285;29;20094;-86
2022/05/21 10:39:14;;;;;;;12.60;4.80;;;20.60;99.90;;;21.94;57.45;166330.19;4966868;29;20032;-84
2022/05/21 10:42:09;;;;;;;11.73;5.57;;;20.60;99.90;;;21.62;58.94;166245.41;4951755;29;20397;-85
2022/05/21 10:45:25;;;;;;;15.15;6.10;;;20.30;99.90;;;21.68;61.77;166260.19;4950382;29;20111;-89
2022/05/21 10:48:31;;;;;;;11.93;5.60;;;20.30;99.90;;;21.72;59.01;166272.31;4959343;29;20051;-87
2022/05/21 10:51:29;;;;;;;9.10;5.03;;;20.40;99.90;;;21.42;62.39;166191.63;4941689;29;20079;-88
2022/05/21 10:54:31;;;;;;;12.15;5.47;;;20.10;99.90;;;20.72;61.77;166004.72;4941377;29;20027;-87
2022/05/21 10:57:58;;;;;;;11.10;5.22;;;19.60;99.90;;;20.52;64.50;165951.00;4941326;29;20451;-87
2022/05/21 11:01:14;;;;;;;12.73;5.43;;;19.30;99.90;;;20.92;61.50;166058.50;4940920;29;20035;-85
2022/05/21 11:04:44;;;;;;;10.52;4.68;;;19.40;99.90;;;20.53;63.06;165955.00;4956368;28;20656;-86
2022/05/21 11:08:02;;;;;;;14.05;4.97;;;19.30;99.90;;;19.70;63.95;165733.28;4945819;29;20163;-88
2022/05/21 11:11:13;;;;;;;9.68;4.63;;;18.50;99.90;;;18.54;69.77;165424.38;4955991;29;20104;-88
2022/05/21 11:14:14;;;;;;;13.25;6.03;;;17.70;99.90;;;18.21;71.25;165337.09;4963375;28;20031;-85
2022/05/21 11:16:49;;;;;;;13.10;5.30;;;17.10;99.90;;;17.92;71.86;165261.94;4976388;28;20019;-87
2022/05/21 11:19:53;;;;;;;13.10;6.13;;;16.80;99.90;;;17.73;73.36;165209.63;4960860;29;20023;-88
2022/05/21 11:22:39;;;;;;;10.35;5.72;;;16.50;99.90;;;17.65;74.16;165188.16;4953288;29;20054;-87
2022/05/21 11:25:31;;;;;;;13.35;5.35;;;16.50;99.90;;;17.83;73.84;165237.81;4959427;28;20555;-87
2022/05/21 11:28:27;;;;;;;14.43;5.60;;;16.60;99.90;;;18.09;72.56;165304.88;4960095;29;20043;-86
2022/05/21 11:31:05;;;;;;;14.45;5.25;;;16.80;99.90;;;18.30;72.55;165362.59;4961376;28;20096;-87
2022/05/21 11:39:20;;;;;;;13.27;5.60;;;17.10;99.90;;;18.20;71.56;165334.44;4960491;29;20035;-87
2022/05/21 11:42:07;;;;;;;12.95;5.60;;;17.00;99.90;;;18.28;71.97;165357.22;4958341;29;20058;-87
2022/05/21 11:44:56;;;;;;;12.27;6.15;;;17.10;99.90;;;18.54;69.24;165424.38;4958465;29;20031;-87
2022/05/21 11:47:33;;;;;;;15.30;6.03;;;17.30;99.90;;;18.98;68.10;165541.16;4957587;29;20027;-85
2022/05/21 11:50:07;;;;;;;12.68;5.88;;;17.60;99.90;;;19.41;67.13;165656.72;4956364;28;20508;-86
2022/05/21 11:52:36;;;;;;;12.13;5.88;;;18.00;99.90;;;19.97;65.47;165807.13;4956305;29;20034;-86
2022/05/21 11:56:25;;;;;;;11.65;5.25;;;18.50;99.90;;;20.95;63.27;166067.91;4957394;29;20035;-85
2022/05/21 11:59:00;;;;;;;11.77;4.95;;;19.20;99.90;;;21.42;61.03;166191.63;4937198;29;20039;-88
2022/05/21 12:01:39;;;;;;;13.27;4.82;;;19.80;99.90;;;21.21;60.59;166136.53;4958341;29;20484;-86
2022/05/21 12:04:24;;;;;;;11.20;5.00;;;19.70;99.90;;;20.82;62.56;166032.97;4957839;29;20510;-87
2022/05/21 12:06:51;;;;;;;13.70;5.05;;;19.30;99.90;;;19.97;65.01;165805.84;4958079;28;20035;-84
2022/05/21 12:09:31;;;;;;;11.30;4.65;;;18.80;99.90;;;19.77;64.86;165753.44;4957514;28;20042;-87
2022/05/21 12:12:28;;;;;;;10.60;5.15;;;18.50;99.90;;;19.64;64.43;165717.16;4938347;28;20035;-85
2022/05/21 12:15:13;;;;;;;;;;;18.40;99.90;;;19.76;64.62;165749.38;4937311;29;20065;-86
2022/05/21 12:18:02;;;;;;;11.15;5.10;;;18.50;99.90;;;20.24;62.74;165878.38;4936933;29;20001;-85
2022/05/21 12:20:49;;;;;;;16.80;5.22;;;18.80;99.90;;;20.48;61.71;165942.88;4937439;29;20031;-87
2022/05/21 12:23:37;;;;;;;12.73;4.53;;;19.10;99.90;;;20.61;59.14;165975.19;4958499;29;20515;-87
2022/05/21 12:26:22;;;;;;;11.45;5.80;;;19.10;99.90;;;20.20;60.09;165867.59;4948513;29;20107;-84
2022/05/21 12:29:07;;;;;;;14.90;5.00;;;19.10;99.90;;;20.00;61.95;165813.91;4938270;29;20034;-86
2022/05/21 12:31:51;;;;;;;12.57;4.32;;;18.80;99.90;;;19.67;62.13;165726.56;4938691;29;20358;-86
2022/05/21 12:34:44;;;;;;;12.05;4.60;;;18.50;99.90;;;19.56;64.83;165697.00;4938802;29;20405;-88
2022/05/21 12:37:47;;;;;;;10.48;4.55;;;18.30;99.90;;;19.32;65.68;165632.50;4939003;29;20119;-87
2022/05/21 12:40:34;;;;;;;11.48;5.00;;;18.10;99.90;;;19.20;68.16;165601.59;4939488;29;20028;-86
2022/05/21 12:43:15;;;;;;;11.77;3.72;;;18.00;99.90;;;19.59;67.01;165705.06;4937757;29;20059;-87
2022/05/21 12:45:49;;;;;;;12.80;4.97;;;18.20;99.90;;;19.35;65.35;165641.91;4937991;29;20032;-86
2022/05/21 12:48:35;;;;;;;12.93;4.75;;;18.20;99.90;;;19.75;65.08;165748.03;4938185;29;20027;-86
2022/05/21 12:51:10;;;;;;;9.80;4.28;;;18.40;99.90;;;19.53;63.89;165687.59;4955793;29;20038;-86
2022/05/21 12:53:52;;;;;;;10.02;4.30;;;18.40;99.90;;;19.73;63.57;165742.69;4939997;29;20496;-85
2022/05/21 12:56:23;;;;;;;11.88;4.65;;;18.40;99.90;;;19.86;64.12;165776.25;4937026;29;20031;-86
2022/05/21 12:59:17;;;;;;;10.23;4.65;;;18.60;99.90;;;20.55;62.11;165959.06;4937696;29;20032;-84
2022/05/21 13:02:10;;;;;;;8.98;3.97;;;19.20;99.90;;;20.91;58.84;166055.78;4958395;28;20023;-82
2022/05/21 13:04:59;;;;;;;9.10;4.30;;;19.50;99.90;;;21.13;57.55;166113.69;4958653;28;20024;-85
2022/05/21 13:07:43;;;;;;;15.27;5.20;;;19.80;99.90;;;22.14;55.84;166382.66;4964509;28;20135;-87
2022/05/21 13:10:31;;;;;;;12.05;5.15;;;20.70;99.90;;;23.32;53.85;166698.88;4937687;29;20055;-87
2022/05/21 13:13:08;;;;;;;7.72;4.00;;;21.60;99.60;;;23.83;51.85;166834.88;4937075;29;20038;-87
2022/05/21 13:16:00;;;;;;;14.55;4.95;;;22.20;95.40;;;24.37;49.41;166977.69;4938114;29;20023;-87
2022/05/21 13:18:55;;;;;;;10.93;4.43;;;22.60;88.10;;;23.74;50.21;166810.66;4938388;29;20035;-85
2022/05/21 13:21:47;;;;;;;9.43;3.97;;;22.20;89.10;;;23.70;50.54;166798.53;4939959;29;20031;-87
2022/05/21 13:24:43;;;;;;;9.50;3.83;;;22.10;86.90;;;23.23;50.78;166673.31;4938168;29;20086;-88
2022/05/21 13:27:21;;;;;;;10.05;3.80;;;21.70;89.10;;;22.33;52.71;166435.09;4940637;29;20168;-85
2022/05/21 13:29:53;;;;;;;9.27;4.18;;;21.00;92.80;;;21.82;52.86;166297.88;4956705;29;20028;-87
2022/05/21 13:32:31;;;;;;;10.18;4.47;;;20.60;92.40;;;21.08;54.45;166101.50;4937667;29;20028;-86
2022/05/21 13:35:12;;;;;;;14.68;4.57;;;20.00;95.10;;;20.74;56.20;166010.13;4938445;29;20024;-86
2022/05/21 13:37:44;;;;;;;8.10;4.07;;;19.70;98.90;;;20.91;56.80;166055.78;4938136;29;20102;-87
2022/05/21 13:40:34;;;;;;;9.88;3.80;;;19.60;99.90;;;20.93;57.08;166061.22;4943555;28;20015;-80
2022/05/21 13:43:40;;;;;;;10.20;3.92;;;19.50;99.90;;;21.09;56.67;166102.88;4958199;28;20067;-87
2022/05/21 13:46:10;;;;;;;8.23;3.83;;;19.60;99.90;;;21.17;57.64;166125.75;4956003;29;20124;-85
2022/05/21 13:48:47;;;;;;;13.65;4.07;;;19.80;99.90;;;21.86;56.60;166308.63;4936747;29;20095;-85
2022/05/21 13:51:19;;;;;;;10.10;4.25;;;20.30;99.90;;;23.28;53.88;166688.09;4936938;29;20381;-89
2022/05/21 13:53:50;;;;;;;10.25;3.92;;;21.40;99.90;;;23.72;50.62;166803.94;4938320;29;20032;-83